createdAt,value
2019-04-07T00:00:37.356Z,83.76
2019-04-07T00:01:37.325Z,84.48
2019-04-07T00:02:37.317Z,84.38
2019-04-07T00:03:37.425Z,84.58
2019-04-07T00:04:37.463Z,84.69
2019-04-07T00:05:37.780Z,84.38
2019-04-07T00:06:37.340Z,84.17
2019-04-07T00:07:37.838Z,83.86
2019-04-07T00:08:37.680Z,83.97
2019-04-07T00:09:37.241Z,84.38
2019-04-07T00:10:37.306Z,84.38
2019-04-07T00:11:37.217Z,84.27
2019-04-07T00:12:37.211Z,83.76
2019-04-07T00:13:37.227Z,84.58
2019-04-07T00:14:37.199Z,84.17
2019-04-07T00:15:37.748Z,84.27
2019-04-07T00:16:37.353Z,84.17
2019-04-07T00:17:37.534Z,84.17
2019-04-07T00:18:37.388Z,83.76
2019-04-07T00:19:37.731Z,84.38
2019-04-07T00:20:37.526Z,85.61
2019-04-07T00:21:37.109Z,84.27
2019-04-07T00:22:37.105Z,84.38
2019-04-07T00:23:37.095Z,84.72
2019-04-07T00:24:37.077Z,84.27
2019-04-07T00:25:37.408Z,84.38
2019-04-07T00:26:37.072Z,84.31
2019-04-07T00:27:37.045Z,84.31
2019-04-07T00:28:37.038Z,85.34
2019-04-07T00:29:37.029Z,85.03
2019-04-07T00:30:37.201Z,84.93
2019-04-07T00:31:37.364Z,84.58
2019-04-07T00:32:36.995Z,84.72
2019-04-07T00:33:36.991Z,85.03
2019-04-07T00:34:36.973Z,84.72
2019-04-07T00:35:37.588Z,84.21
2019-04-07T00:36:37.798Z,84.72
2019-04-07T00:37:37.358Z,85.34
2019-04-07T00:38:36.926Z,85.34
2019-04-07T00:39:36.917Z,85.44
2019-04-07T00:40:37.104Z,85.55
2019-04-07T00:41:37.576Z,85.65
2019-04-07T00:42:36.883Z,85.34
2019-04-07T00:43:36.885Z,85.69
2019-04-07T00:44:36.873Z,85.69
2019-04-07T00:45:36.994Z,85.14
2019-04-07T00:46:37.162Z,85.55
2019-04-07T00:47:37.282Z,85.38
2019-04-07T00:48:36.814Z,85.59
2019-04-07T00:49:36.907Z,85.79
2019-04-07T00:50:36.795Z,85.59
2019-04-07T00:51:37.516Z,85.17
2019-04-07T00:52:36.917Z,85.07
2019-04-07T00:53:36.771Z,85.24
2019-04-07T00:54:37.030Z,85.49
2019-04-07T00:55:36.734Z,85.28
2019-04-07T00:56:36.760Z,85.69
2019-04-07T00:57:36.714Z,85.79
2019-04-07T00:58:36.932Z,85.59
2019-04-07T00:59:36.710Z,85.83
2019-04-07T01:00:37.306Z,85.73
2019-04-07T01:01:37.214Z,85.59
2019-04-07T01:02:36.670Z,85.79
2019-04-07T01:03:36.648Z,85.11
2019-04-07T01:04:36.641Z,85.11
2019-04-07T01:05:40.493Z,85.52
2019-04-07T01:06:37.648Z,84.49
2019-04-07T01:07:36.618Z,86.55
2019-04-07T01:08:37.232Z,86.66
2019-04-07T01:09:36.586Z,86.15
2019-04-07T01:10:36.907Z,86.15
2019-04-07T01:11:36.977Z,86.76
2019-04-07T01:12:36.949Z,86.15
2019-04-07T01:13:36.544Z,86.55
2019-04-07T01:14:36.795Z,86.70
2019-04-07T01:15:36.520Z,86.66
2019-04-07T01:16:36.522Z,87.11
2019-04-07T01:17:36.993Z,85.97
2019-04-07T01:18:37.123Z,85.97
2019-04-07T01:19:36.631Z,86.39
2019-04-07T01:20:36.469Z,86.90
2019-04-07T01:21:36.489Z,87.01
2019-04-07T01:22:36.449Z,86.90
2019-04-07T01:23:36.488Z,86.90
2019-04-07T01:24:36.460Z,86.80
2019-04-07T01:25:36.763Z,88.24
2019-04-07T01:26:36.402Z,88.14
2019-04-07T01:27:36.408Z,87.77
2019-04-07T01:28:36.387Z,87.35
2019-04-07T01:29:36.454Z,87.87
2019-04-07T01:30:37.081Z,88.08
2019-04-07T01:31:36.350Z,87.87
2019-04-07T01:32:36.743Z,87.87
2019-04-07T01:33:36.771Z,87.87
2019-04-07T01:34:36.316Z,88.08
2019-04-07T01:35:44.983Z,88.84
2019-04-07T01:36:37.317Z,88.74
2019-04-07T01:37:36.301Z,88.49
2019-04-07T01:38:36.699Z,88.84
2019-04-07T01:39:36.265Z,88.39
2019-04-07T01:40:36.451Z,88.74
2019-04-07T01:41:36.249Z,88.84
2019-04-07T01:42:36.728Z,88.53
2019-04-07T01:43:36.230Z,88.74
2019-04-07T01:44:36.211Z,88.84
2019-04-07T01:45:36.903Z,88.84
2019-04-07T01:46:36.191Z,89.87
2019-04-07T01:47:36.303Z,89.77
2019-04-07T01:48:36.812Z,89.05
2019-04-07T01:49:36.177Z,89.77
2019-04-07T01:50:36.418Z,89.25
2019-04-07T01:51:36.405Z,89.15
2019-04-07T01:52:36.570Z,89.56
2019-04-07T01:53:36.691Z,90.28
2019-04-07T01:54:36.275Z,90.08
2019-04-07T01:55:36.147Z,90.08
2019-04-07T01:56:36.278Z,89.87
2019-04-07T01:57:36.420Z,89.77
2019-04-07T01:58:36.065Z,89.98
2019-04-07T01:59:36.501Z,89.87
2019-04-07T02:00:36.053Z,90.08
2019-04-07T02:01:36.332Z,89.77
2019-04-07T02:02:36.623Z,89.71
2019-04-07T02:03:36.013Z,90.39
2019-04-07T02:04:36.004Z,89.87
2019-04-07T02:05:36.453Z,89.81
2019-04-07T02:06:36.506Z,89.81
2019-04-07T02:07:35.985Z,89.77
2019-04-07T02:08:36.312Z,89.98
2019-04-07T02:09:35.953Z,89.67
2019-04-07T02:10:36.253Z,90.22
2019-04-07T02:11:35.935Z,89.77
2019-04-07T02:12:36.684Z,89.61
2019-04-07T02:13:36.222Z,89.71
2019-04-07T02:14:36.703Z,89.67
2019-04-07T02:15:35.888Z,90.12
2019-04-07T02:16:35.889Z,89.81
2019-04-07T02:17:36.350Z,89.61
2019-04-07T02:18:35.873Z,89.50
2019-04-07T02:19:35.975Z,89.13
2019-04-07T02:20:36.075Z,89.50
2019-04-07T02:21:36.127Z,89.50
2019-04-07T02:22:35.814Z,90.02
2019-04-07T02:23:35.835Z,89.98
2019-04-07T02:24:35.793Z,89.77
2019-04-07T02:25:36.168Z,89.19
2019-04-07T02:26:35.768Z,89.50
2019-04-07T02:27:36.096Z,89.81
2019-04-07T02:28:35.842Z,89.92
2019-04-07T02:29:35.875Z,88.78
2019-04-07T02:30:35.722Z,89.81
2019-04-07T02:31:35.998Z,88.68
2019-04-07T02:32:35.790Z,88.89
2019-04-07T02:33:35.710Z,89.19
2019-04-07T02:34:36.039Z,90.12
2019-04-07T02:35:36.464Z,89.71
2019-04-07T02:36:35.834Z,89.81
2019-04-07T02:37:35.659Z,89.71
2019-04-07T02:38:36.569Z,89.09
2019-04-07T02:39:36.731Z,88.78
2019-04-07T02:40:35.617Z,89.19
2019-04-07T02:41:35.613Z,89.40
2019-04-07T02:42:36.553Z,90.12
2019-04-07T02:43:35.601Z,90.22
2019-04-07T02:44:35.579Z,90.33
2019-04-07T02:45:36.569Z,89.92
2019-04-07T02:46:36.563Z,89.50
2019-04-07T02:47:35.550Z,90.02
2019-04-07T02:48:35.548Z,89.81
2019-04-07T02:49:35.646Z,89.61
2019-04-07T02:50:35.533Z,89.71
2019-04-07T02:51:35.504Z,89.81
2019-04-07T02:52:35.727Z,89.92
2019-04-07T02:53:35.494Z,89.19
2019-04-07T02:54:36.033Z,89.50
2019-04-07T02:55:35.669Z,89.81
2019-04-07T02:56:35.701Z,89.44
2019-04-07T02:57:35.961Z,89.54
2019-04-07T02:58:35.837Z,90.22
2019-04-07T02:59:35.446Z,89.86
2019-04-07T03:00:36.454Z,90.02
2019-04-07T03:01:35.418Z,90.74
2019-04-07T03:02:35.386Z,90.64
2019-04-07T03:03:36.703Z,89.87
2019-04-07T03:04:35.365Z,89.98
2019-04-07T03:05:36.132Z,89.92
2019-04-07T03:06:44.034Z,89.50
2019-04-07T03:07:36.333Z,89.92
2019-04-07T03:08:35.658Z,90.28
2019-04-07T03:09:35.319Z,90.12
2019-04-07T03:10:36.367Z,89.36
2019-04-07T03:11:35.449Z,89.25
2019-04-07T03:12:35.420Z,89.05
2019-04-07T03:13:35.274Z,89.92
2019-04-07T03:14:35.272Z,88.89
2019-04-07T03:15:35.250Z,88.37
2019-04-07T03:16:35.647Z,88.57
2019-04-07T03:17:36.055Z,89.09
2019-04-07T03:18:35.892Z,88.98
2019-04-07T03:19:35.449Z,89.09
2019-04-07T03:20:36.137Z,90.33
2019-04-07T03:21:36.171Z,89.61
2019-04-07T03:22:35.180Z,89.81
2019-04-07T03:23:35.425Z,89.61
2019-04-07T03:24:35.183Z,90.06
2019-04-07T03:25:35.639Z,89.50
2019-04-07T03:26:35.132Z,88.92
2019-04-07T03:27:36.082Z,89.13
2019-04-07T03:28:35.114Z,89.03
2019-04-07T03:29:35.112Z,89.13
2019-04-07T03:30:37.537Z,89.75
2019-04-07T03:31:36.541Z,90.16
2019-04-07T03:32:37.839Z,90.26
2019-04-07T03:33:39.495Z,90.26
2019-04-07T03:34:38.023Z,90.37
2019-04-07T03:35:35.583Z,89.86
2019-04-07T03:37:03.006Z,89.86
2019-04-07T03:37:42.231Z,90.16
2019-04-07T03:38:36.675Z,90.58
2019-04-07T03:39:35.002Z,90.16
2019-04-07T03:40:35.564Z,90.37
2019-04-07T03:41:35.137Z,90.26
2019-04-07T03:42:35.766Z,90.10
2019-04-07T03:43:35.857Z,89.89
2019-04-07T03:44:34.976Z,90.10
2019-04-07T03:45:35.781Z,90.10
2019-04-07T03:46:34.919Z,90.10
2019-04-07T03:47:35.433Z,90.20
2019-04-07T03:48:35.378Z,90.20
2019-04-07T03:49:35.194Z,90.06
2019-04-07T03:50:34.877Z,90.20
2019-04-07T03:51:34.869Z,90.10
2019-04-07T03:52:35.480Z,90.52
2019-04-07T03:53:35.683Z,90.41
2019-04-07T03:54:35.506Z,89.89
2019-04-07T03:55:35.206Z,90.10
2019-04-07T03:56:34.817Z,90.25
2019-04-07T03:57:35.283Z,90.20
2019-04-07T03:58:34.785Z,90.04
2019-04-07T03:59:35.266Z,90.35
2019-04-07T04:00:34.805Z,90.97
2019-04-07T04:01:35.603Z,90.56
2019-04-07T04:02:34.746Z,90.87
2019-04-07T04:03:34.731Z,90.56
2019-04-07T04:04:34.724Z,90.66
2019-04-07T04:05:34.727Z,90.87
2019-04-07T04:06:35.374Z,90.77
2019-04-07T04:07:36.928Z,91.17
2019-04-07T04:08:35.010Z,91.28
2019-04-07T04:09:37.915Z,91.69
2019-04-07T04:10:36.468Z,92.32
2019-04-07T04:11:34.648Z,91.22
2019-04-07T04:12:35.709Z,91.32
2019-04-07T04:13:35.744Z,91.49
2019-04-07T04:14:34.766Z,91.32
2019-04-07T04:15:34.622Z,91.42
2019-04-07T04:16:34.589Z,91.32
2019-04-07T04:17:34.797Z,91.11
2019-04-07T04:18:35.238Z,91.32
2019-04-07T04:19:34.844Z,92.46
2019-04-07T04:20:34.831Z,91.88
2019-04-07T04:21:34.543Z,92.57
2019-04-07T04:22:34.526Z,92.81
2019-04-07T04:23:34.518Z,93.02
2019-04-07T04:24:35.077Z,93.02
2019-04-07T04:25:34.642Z,92.71
2019-04-07T04:26:35.547Z,91.78
2019-04-07T04:27:35.309Z,91.47
2019-04-07T04:28:34.760Z,91.78
2019-04-07T04:29:34.450Z,91.61
2019-04-07T04:30:34.526Z,92.71
2019-04-07T04:31:34.433Z,92.50
2019-04-07T04:32:34.439Z,92.85
2019-04-07T04:33:34.833Z,92.65
2019-04-07T04:34:34.678Z,92.65
2019-04-07T04:35:34.603Z,93.27
2019-04-07T04:36:34.399Z,93.27
2019-04-07T04:37:42.476Z,93.27
2019-04-07T04:38:36.435Z,93.06
2019-04-07T04:39:34.379Z,93.37
2019-04-07T04:40:34.335Z,93.68
2019-04-07T04:41:34.850Z,94.10
2019-04-07T04:42:35.598Z,94.10
2019-04-07T04:43:34.304Z,93.68
2019-04-07T04:44:34.289Z,93.06
2019-04-07T04:45:34.278Z,93.27
2019-04-07T04:46:34.529Z,92.96
2019-04-07T04:47:34.476Z,94.10
2019-04-07T04:48:35.132Z,93.89
2019-04-07T04:49:35.148Z,94.20
2019-04-07T04:50:35.177Z,94.10
2019-04-07T04:51:37.067Z,93.79
2019-04-07T04:52:36.192Z,94.37
2019-04-07T04:53:34.931Z,94.82
2019-04-07T04:54:34.196Z,94.31
2019-04-07T04:55:34.998Z,94.62
2019-04-07T04:56:34.269Z,94.57
2019-04-07T04:57:35.156Z,94.98
2019-04-07T04:58:34.866Z,94.62
2019-04-07T04:59:34.137Z,94.51
2019-04-07T05:00:34.191Z,94.98
2019-04-07T05:01:34.476Z,94.82
2019-04-07T05:02:34.788Z,94.47
2019-04-07T05:03:34.825Z,94.57
2019-04-07T05:04:34.162Z,94.47
2019-04-07T05:05:34.529Z,94.47
2019-04-07T05:06:34.121Z,94.78
2019-04-07T05:07:47.889Z,94.89
2019-04-07T05:08:35.861Z,94.78
2019-04-07T05:09:41.900Z,94.53
2019-04-07T05:10:35.008Z,94.57
2019-04-07T05:11:34.444Z,94.57
2019-04-07T05:12:33.993Z,94.68
2019-04-07T05:13:34.156Z,94.63
2019-04-07T05:14:33.993Z,94.43
2019-04-07T05:15:34.218Z,94.94
2019-04-07T05:16:34.434Z,94.73
2019-04-07T05:17:33.952Z,94.48
2019-04-07T05:18:33.928Z,94.59
2019-04-07T05:19:34.349Z,94.28
2019-04-07T05:20:34.447Z,94.59
2019-04-07T05:21:34.053Z,94.69
2019-04-07T05:22:33.894Z,94.69
2019-04-07T05:23:33.880Z,94.38
2019-04-07T05:24:35.039Z,94.75
2019-04-07T05:25:33.850Z,94.34
2019-04-07T05:26:34.514Z,94.23
2019-04-07T05:27:33.844Z,94.34
2019-04-07T05:28:36.915Z,94.50
2019-04-07T05:29:34.041Z,94.29
2019-04-07T05:30:33.794Z,94.50
2019-04-07T05:31:33.788Z,94.40
2019-04-07T05:32:33.863Z,94.67
2019-04-07T05:33:34.491Z,94.04
2019-04-07T05:34:34.480Z,93.73
2019-04-07T05:35:34.165Z,94.04
2019-04-07T05:36:33.736Z,93.38
2019-04-07T05:37:34.133Z,93.13
2019-04-07T05:38:33.717Z,92.31
2019-04-07T05:39:33.728Z,92.41
2019-04-07T05:40:34.406Z,91.58
2019-04-07T05:41:33.777Z,91.69
2019-04-07T05:42:34.296Z,91.13
2019-04-07T05:43:33.888Z,89.95
2019-04-07T05:44:34.377Z,89.85
2019-04-07T05:45:36.393Z,89.44
2019-04-07T05:46:33.627Z,89.09
2019-04-07T05:47:33.931Z,88.57
2019-04-07T05:48:33.774Z,88.23
2019-04-07T05:49:33.595Z,87.71
2019-04-07T05:50:33.620Z,87.40
2019-04-07T05:51:33.890Z,86.54
2019-04-07T05:52:39.165Z,86.64
2019-04-07T05:53:34.546Z,86.13
2019-04-07T05:54:34.052Z,86.60
2019-04-07T05:55:33.529Z,85.68
2019-04-07T05:56:33.518Z,86.29
2019-04-07T05:57:35.270Z,85.12
2019-04-07T05:58:37.567Z,85.53
2019-04-07T05:59:34.486Z,85.22
2019-04-07T06:00:34.008Z,84.98
2019-04-07T06:01:33.537Z,84.26
2019-04-07T06:02:34.130Z,82.78
2019-04-07T06:03:38.028Z,82.84
2019-04-07T06:04:34.896Z,82.75
2019-04-07T06:05:33.507Z,82.13
2019-04-07T06:06:34.258Z,81.68
2019-04-07T06:07:35.657Z,81.27
2019-04-07T06:08:38.700Z,80.72
2019-04-07T06:09:35.043Z,80.41
2019-04-07T06:10:33.704Z,80.64
2019-04-07T06:11:35.457Z,78.31
2019-04-07T06:12:33.894Z,76.03
2019-04-07T06:13:33.337Z,75.07
2019-04-07T06:14:33.528Z,75.48
2019-04-07T06:15:33.531Z,75.38
2019-04-07T06:16:33.414Z,75.07
2019-04-07T06:17:33.301Z,75.07
2019-04-07T06:18:34.207Z,74.76
2019-04-07T06:19:37.365Z,74.46
2019-04-07T06:20:34.362Z,74.73
2019-04-07T06:21:33.392Z,74.43
2019-04-07T06:22:33.837Z,74.52
2019-04-07T06:23:33.259Z,73.77
2019-04-07T06:24:34.986Z,73.98
2019-04-07T06:25:37.902Z,73.64
2019-04-07T06:26:34.213Z,72.48
2019-04-07T06:27:33.639Z,72.72
2019-04-07T06:28:33.809Z,68.88
2019-04-07T06:29:33.406Z,67.16
2019-04-07T06:30:35.836Z,65.47
2019-04-07T06:31:34.007Z,63.95
2019-04-07T06:32:36.107Z,62.68
2019-04-07T06:33:36.668Z,63.43
2019-04-07T06:34:33.733Z,58.48
2019-04-07T06:35:33.613Z,58.83
2019-04-07T06:36:33.089Z,57.46
2019-04-07T06:37:33.146Z,55.49
2019-04-07T06:38:35.895Z,53.65
2019-04-07T06:39:34.075Z,54.33
2019-04-07T06:40:33.768Z,52.77
2019-04-07T06:41:34.215Z,50.33
2019-04-07T06:42:34.093Z,51.01
2019-04-07T06:43:35.162Z,49.07
2019-04-07T06:44:33.465Z,48.57
2019-04-07T06:45:33.370Z,49.25
2019-04-07T06:46:32.979Z,48.32
2019-04-07T06:47:33.541Z,47.92
2019-04-07T06:48:33.051Z,46.29
2019-04-07T06:49:32.967Z,46.27
2019-04-07T06:50:44.384Z,45.65
2019-04-07T06:51:34.600Z,45.72
2019-04-07T06:52:38.693Z,45.08
2019-04-07T06:53:33.926Z,43.08
2019-04-07T06:54:33.020Z,43.35
2019-04-07T06:55:34.001Z,43.13
2019-04-07T06:56:34.273Z,42.10
2019-04-07T06:57:35.141Z,41.88
2019-04-07T06:58:33.102Z,40.88
2019-04-07T06:59:32.928Z,40.36
2019-04-07T07:00:32.831Z,40.56
2019-04-07T07:01:32.834Z,40.81
2019-04-07T07:02:33.019Z,39.70
2019-04-07T07:03:35.872Z,39.78
2019-04-07T07:04:33.800Z,38.17
2019-04-07T07:05:34.455Z,38.65
2019-04-07T07:06:32.903Z,37.95
2019-04-07T07:07:32.752Z,38.71
2019-04-07T07:08:42.645Z,37.10
2019-04-07T07:09:33.744Z,36.60
2019-04-07T07:10:37.134Z,37.10
2019-04-07T07:11:35.422Z,36.52
2019-04-07T07:12:38.368Z,37.40
2019-04-07T07:13:35.505Z,36.98
2019-04-07T07:14:40.542Z,36.57
2019-04-07T07:15:34.566Z,36.15
2019-04-07T07:16:32.667Z,34.45
2019-04-07T07:17:33.169Z,34.96
2019-04-07T07:18:32.655Z,35.46
2019-04-07T07:19:32.894Z,35.38
2019-04-07T07:20:32.763Z,34.96
2019-04-07T07:21:36.449Z,34.84
2019-04-07T07:22:33.689Z,34.91
2019-04-07T07:23:33.211Z,34.33
2019-04-07T07:24:32.659Z,35.21
2019-04-07T07:25:33.300Z,34.20
2019-04-07T07:26:35.123Z,33.42
2019-04-07T07:27:32.807Z,34.34
2019-04-07T07:28:32.629Z,35.04
2019-04-07T07:29:33.700Z,34.92
2019-04-07T07:30:32.713Z,34.52
2019-04-07T07:31:32.501Z,34.38
2019-04-07T07:32:35.006Z,33.97
2019-04-07T07:33:32.490Z,33.37
2019-04-07T07:34:32.504Z,33.17
2019-04-07T07:35:32.467Z,33.77
2019-04-07T07:36:32.874Z,33.28
2019-04-07T07:37:33.225Z,33.73
2019-04-07T07:38:33.397Z,32.55
2019-04-07T07:39:32.419Z,32.35
2019-04-07T07:40:34.627Z,32.92
2019-04-07T07:41:32.397Z,32.14
2019-04-07T07:42:32.950Z,32.53
2019-04-07T07:43:32.385Z,31.93
2019-04-07T07:44:36.087Z,32.21
2019-04-07T07:45:33.379Z,32.31
2019-04-07T07:46:32.383Z,32.19
2019-04-07T07:47:32.732Z,32.07
2019-04-07T07:48:32.371Z,31.27
2019-04-07T07:49:35.149Z,30.76
2019-04-07T07:50:34.705Z,30.26
2019-04-07T07:51:32.297Z,30.55
2019-04-07T07:52:32.994Z,30.26
2019-04-07T07:53:32.868Z,30.34
2019-04-07T07:54:32.261Z,29.72
2019-04-07T07:55:36.510Z,29.21
2019-04-07T07:56:33.260Z,28.70
2019-04-07T07:57:32.676Z,28.33
2019-04-07T07:58:34.217Z,29.02
2019-04-07T07:59:37.625Z,28.54
2019-04-07T08:00:34.514Z,29.13
2019-04-07T08:01:32.290Z,29.02
2019-04-07T08:02:32.181Z,29.00
2019-04-07T08:03:32.173Z,29.69
2019-04-07T08:04:32.156Z,29.00
2019-04-07T08:05:33.436Z,28.69
2019-04-07T08:06:32.852Z,28.70
2019-04-07T08:07:32.126Z,28.02
2019-04-07T08:08:32.118Z,28.63
2019-04-07T08:09:39.317Z,30.52
2019-04-07T08:10:32.122Z,30.15
2019-04-07T08:11:34.410Z,30.47
2019-04-07T08:12:34.586Z,32.45
2019-04-07T08:13:32.464Z,32.97
2019-04-07T08:14:32.496Z,31.96
2019-04-07T08:15:33.378Z,31.85
2019-04-07T08:16:32.554Z,31.16
2019-04-07T08:17:33.845Z,31.16
2019-04-07T08:18:32.013Z,30.63
2019-04-07T08:19:32.015Z,30.94
2019-04-07T08:20:32.600Z,31.47
2019-04-07T08:21:32.665Z,31.45
2019-04-07T08:22:39.237Z,31.57
2019-04-07T08:23:32.960Z,31.76
2019-04-07T08:24:32.701Z,31.16
2019-04-07T08:25:31.938Z,30.38
2019-04-07T08:26:31.930Z,31.14
2019-04-07T08:27:32.301Z,30.17
2019-04-07T08:28:35.118Z,30.76
2019-04-07T08:29:32.385Z,30.98
2019-04-07T08:30:31.888Z,31.98
2019-04-07T08:31:32.636Z,32.01
2019-04-07T08:32:33.078Z,32.60
2019-04-07T08:33:32.234Z,32.01
2019-04-07T08:34:32.990Z,32.49
2019-04-07T08:35:35.705Z,33.00
2019-04-07T08:36:32.834Z,32.14
2019-04-07T08:37:31.814Z,33.77
2019-04-07T08:38:32.162Z,34.88
2019-04-07T08:39:35.086Z,34.52
2019-04-07T08:40:31.796Z,35.42
2019-04-07T08:41:32.518Z,36.41
2019-04-07T08:42:32.592Z,36.04
2019-04-07T08:43:31.983Z,36.05
2019-04-07T08:44:31.786Z,36.43
2019-04-07T08:45:32.776Z,36.13
2019-04-07T08:46:35.234Z,35.06
2019-04-07T08:47:33.383Z,34.45
2019-04-07T08:48:32.260Z,34.83
2019-04-07T08:49:33.395Z,34.61
2019-04-07T08:50:32.114Z,34.43
2019-04-07T08:51:32.606Z,34.41
2019-04-07T08:52:31.673Z,33.62
2019-04-07T08:53:31.742Z,35.22
2019-04-07T08:54:31.884Z,34.15
2019-04-07T08:55:31.629Z,33.65
2019-04-07T08:56:31.611Z,33.82
2019-04-07T08:57:32.417Z,33.80
2019-04-07T08:58:36.104Z,33.50
2019-04-07T08:59:32.610Z,34.01
2019-04-07T09:00:31.667Z,35.60
2019-04-07T09:01:32.449Z,34.73
2019-04-07T09:02:32.212Z,35.24
2019-04-07T09:03:31.540Z,35.17
2019-04-07T09:04:31.977Z,36.49
2019-04-07T09:05:31.544Z,37.18
2019-04-07T09:06:31.601Z,36.50
2019-04-07T09:07:33.522Z,36.68
2019-04-07T09:08:34.639Z,36.29
2019-04-07T09:09:35.922Z,35.57
2019-04-07T09:10:33.534Z,34.76
2019-04-07T09:11:32.222Z,34.45
2019-04-07T09:12:32.246Z,34.55
2019-04-07T09:13:33.889Z,34.84
2019-04-07T09:14:31.419Z,34.31
2019-04-07T09:15:31.599Z,34.18
2019-04-07T09:16:31.407Z,34.17
2019-04-07T09:17:38.767Z,33.65
2019-04-07T09:18:32.378Z,32.95
2019-04-07T09:19:34.972Z,33.36
2019-04-07T09:20:31.398Z,32.18
2019-04-07T09:21:38.851Z,32.39
2019-04-07T09:22:32.749Z,32.27
2019-04-07T09:23:31.329Z,31.85
2019-04-07T09:24:32.359Z,32.09
2019-04-07T09:25:32.008Z,33.09
2019-04-07T09:26:32.049Z,33.11
2019-04-07T09:27:31.288Z,32.17
2019-04-07T09:28:31.608Z,32.46
2019-04-07T09:29:31.420Z,33.73
2019-04-07T09:30:31.886Z,33.04
2019-04-07T09:31:31.517Z,33.85
2019-04-07T09:32:31.231Z,32.48
2019-04-07T09:33:34.644Z,32.39
2019-04-07T09:34:31.211Z,32.39
2019-04-07T09:35:31.211Z,33.09
2019-04-07T09:36:32.624Z,32.09
2019-04-07T09:37:31.183Z,32.31
2019-04-07T09:38:31.271Z,34.00
2019-04-07T09:39:34.539Z,33.29
2019-04-07T09:40:32.168Z,33.11
2019-04-07T09:41:31.130Z,33.83
2019-04-07T09:42:31.132Z,34.63
2019-04-07T09:43:32.055Z,33.34
2019-04-07T09:44:36.023Z,33.00
2019-04-07T09:45:32.368Z,33.17
2019-04-07T09:46:31.153Z,32.75
2019-04-07T09:47:31.417Z,32.64
2019-04-07T09:48:31.064Z,31.95
2019-04-07T09:49:31.064Z,30.87
2019-04-07T09:50:31.277Z,32.76
2019-04-07T09:51:31.061Z,32.97
2019-04-07T09:52:31.703Z,32.09
2019-04-07T09:53:31.014Z,32.18
2019-04-07T09:54:30.996Z,32.36
2019-04-07T09:55:30.999Z,32.08
2019-04-07T09:56:32.872Z,32.17
2019-04-07T09:57:31.454Z,32.24
2019-04-07T09:58:30.952Z,31.95
2019-04-07T09:59:31.796Z,32.46
2019-04-07T10:00:31.029Z,32.26
2019-04-07T10:01:31.815Z,32.54
2019-04-07T10:02:34.502Z,32.48
2019-04-07T10:03:30.906Z,32.78
2019-04-07T10:04:30.883Z,33.48
2019-04-07T10:05:30.984Z,32.89
2019-04-07T10:06:30.864Z,31.98
2019-04-07T10:07:31.469Z,33.97
2019-04-07T10:08:31.588Z,32.26
2019-04-07T10:09:30.839Z,32.17
2019-04-07T10:10:31.482Z,31.09
2019-04-07T10:11:30.811Z,32.46
2019-04-07T10:12:30.814Z,32.46
2019-04-07T10:13:30.785Z,30.29
2019-04-07T10:14:30.796Z,33.20
2019-04-07T10:15:30.785Z,32.39
2019-04-07T10:16:33.097Z,32.97
2019-04-07T10:17:30.756Z,32.49
2019-04-07T10:18:32.839Z,31.68
2019-04-07T10:19:31.632Z,30.18
2019-04-07T10:20:31.428Z,31.34
2019-04-07T10:21:31.159Z,29.46
2019-04-07T10:22:30.701Z,30.74
2019-04-07T10:23:30.689Z,31.02
2019-04-07T10:24:31.426Z,32.40
2019-04-07T10:25:30.687Z,30.62
2019-04-07T10:26:31.376Z,30.12
2019-04-07T10:27:31.386Z,29.34
2019-04-07T10:28:31.171Z,29.04
2019-04-07T10:29:30.798Z,30.25
2019-04-07T10:30:30.627Z,29.17
2019-04-07T10:31:30.606Z,30.56
2019-04-07T10:32:30.849Z,30.74
2019-04-07T10:33:31.464Z,29.37
2019-04-07T10:34:30.896Z,29.36
2019-04-07T10:35:30.693Z,30.22
2019-04-07T10:36:30.837Z,30.21
2019-04-07T10:37:31.459Z,28.62
2019-04-07T10:38:30.524Z,30.52
2019-04-07T10:39:30.688Z,29.83
2019-04-07T10:40:31.126Z,29.81
2019-04-07T10:41:31.191Z,28.52
2019-04-07T10:42:30.486Z,28.51
2019-04-07T10:43:31.341Z,28.01
2019-04-07T10:44:30.465Z,28.42
2019-04-07T10:45:30.469Z,29.32
2019-04-07T10:46:30.907Z,29.32
2019-04-07T10:47:30.435Z,28.72
2019-04-07T10:48:31.600Z,29.32
2019-04-07T10:49:30.412Z,29.00
2019-04-07T10:50:30.414Z,29.48
2019-04-07T10:51:30.887Z,27.69
2019-04-07T10:52:30.382Z,28.76
2019-04-07T10:53:32.082Z,27.97
2019-04-07T10:54:30.371Z,27.67
2019-04-07T10:55:30.364Z,26.98
2019-04-07T10:56:30.851Z,27.70
2019-04-07T10:57:30.396Z,29.68
2019-04-07T10:58:31.203Z,28.11
2019-04-07T10:59:30.821Z,29.10
2019-04-07T11:00:30.310Z,28.39
2019-04-07T11:01:30.910Z,27.72
2019-04-07T11:02:30.277Z,29.00
2019-04-07T11:03:30.271Z,29.51
2019-04-07T11:04:30.635Z,28.62
2019-04-07T11:05:30.435Z,30.29
2019-04-07T11:06:30.543Z,26.81
2019-04-07T11:07:30.226Z,27.01
2019-04-07T11:08:30.910Z,27.60
2019-04-07T11:09:30.208Z,27.48
2019-04-07T11:10:37.348Z,27.08
2019-04-07T11:11:31.479Z,28.44
2019-04-07T11:12:30.364Z,26.86
2019-04-07T11:13:30.887Z,27.07
2019-04-07T11:14:30.162Z,27.82
2019-04-07T11:15:30.645Z,25.52
2019-04-07T11:16:31.188Z,25.09
2019-04-07T11:17:30.143Z,24.41
2019-04-07T11:18:30.126Z,24.88
2019-04-07T11:19:30.108Z,23.90
2019-04-07T11:20:30.111Z,25.09
2019-04-07T11:21:30.319Z,24.02
2019-04-07T11:22:30.872Z,25.20
2019-04-07T11:23:30.075Z,25.08
2019-04-07T11:24:31.467Z,23.40
2019-04-07T11:25:30.060Z,23.88
2019-04-07T11:26:30.044Z,23.25
2019-04-07T11:27:31.109Z,23.53
2019-04-07T11:28:30.639Z,23.31
2019-04-07T11:29:30.007Z,24.37
2019-04-07T11:30:30.761Z,23.47
2019-04-07T11:31:29.985Z,22.58
2019-04-07T11:32:30.523Z,23.25
2019-04-07T11:33:29.981Z,22.69
2019-04-07T11:34:30.468Z,23.35
2019-04-07T11:35:31.083Z,22.31
2019-04-07T11:36:29.935Z,22.31
2019-04-07T11:37:30.694Z,22.41
2019-04-07T11:38:29.915Z,22.50
2019-04-07T11:39:30.710Z,21.81
2019-04-07T11:40:41.500Z,23.35
2019-04-07T11:41:31.675Z,21.87
2019-04-07T11:42:30.588Z,22.35
2019-04-07T11:43:30.501Z,22.42
2019-04-07T11:44:29.857Z,22.14
2019-04-07T11:45:29.880Z,21.87
2019-04-07T11:46:30.551Z,22.08
2019-04-07T11:47:29.894Z,22.28
2019-04-07T11:48:29.817Z,24.25
2019-04-07T11:49:30.218Z,22.78
2019-04-07T11:50:29.988Z,22.80
2019-04-07T11:51:30.326Z,23.75
2019-04-07T11:52:29.788Z,21.11
2019-04-07T11:53:29.767Z,22.17
2019-04-07T11:54:30.650Z,21.69
2019-04-07T11:55:30.255Z,22.56
2019-04-07T11:56:29.739Z,22.55
2019-04-07T11:57:30.178Z,21.96
2019-04-07T11:58:32.289Z,21.14
2019-04-07T11:59:29.715Z,19.27
2019-04-07T12:00:30.045Z,19.85
2019-04-07T12:01:30.307Z,19.75
2019-04-07T12:02:29.681Z,19.67
2019-04-07T12:03:29.951Z,20.14
2019-04-07T12:04:30.588Z,19.46
2019-04-07T12:05:29.674Z,20.17
2019-04-07T12:06:29.993Z,21.15
2019-04-07T12:07:30.488Z,19.67
2019-04-07T12:08:35.209Z,19.96
2019-04-07T12:09:30.775Z,19.65
2019-04-07T12:10:30.068Z,18.97
2019-04-07T12:11:29.946Z,18.97
2019-04-07T12:12:30.026Z,19.85
2019-04-07T12:13:29.740Z,18.29
2019-04-07T12:14:29.564Z,18.66
2019-04-07T12:15:30.207Z,18.29
2019-04-07T12:16:30.639Z,19.37
2019-04-07T12:17:30.056Z,19.55
2019-04-07T12:18:29.782Z,20.22
2019-04-07T12:19:30.553Z,16.90
2019-04-07T12:20:33.640Z,17.12
2019-04-07T12:21:29.830Z,17.31
2019-04-07T12:22:29.512Z,19.16
2019-04-07T12:23:29.486Z,19.15
2019-04-07T12:24:30.688Z,19.62
2019-04-07T12:25:33.488Z,20.18
2019-04-07T12:26:30.203Z,19.99
2019-04-07T12:27:30.211Z,19.00
2019-04-07T12:28:30.089Z,17.93
2019-04-07T12:29:29.445Z,18.90
2019-04-07T12:30:29.432Z,18.80
2019-04-07T12:31:29.467Z,17.72
2019-04-07T12:32:29.417Z,17.64
2019-04-07T12:33:29.616Z,18.62
2019-04-07T12:34:29.688Z,18.33
2019-04-07T12:35:29.389Z,19.13
2019-04-07T12:36:31.785Z,19.82
2019-04-07T12:37:29.349Z,19.60
2019-04-07T12:38:29.340Z,18.54
2019-04-07T12:39:31.586Z,18.44
2019-04-07T12:40:30.550Z,19.12
2019-04-07T12:41:31.847Z,18.54
2019-04-07T12:42:29.956Z,18.91
2019-04-07T12:43:29.292Z,17.86
2019-04-07T12:44:30.037Z,19.02
2019-04-07T12:45:29.979Z,19.00
2019-04-07T12:46:29.998Z,18.52
2019-04-07T12:47:30.055Z,18.91
2019-04-07T12:48:31.619Z,18.54
2019-04-07T12:49:29.854Z,19.02
2019-04-07T12:50:29.238Z,19.42
2019-04-07T12:51:29.213Z,20.23
2019-04-07T12:52:31.153Z,19.96